Nearby METAR Reports

 

KSJC - San Jose, California, USA
Distance from station: NE 14km
Updated: 21/09/2021 15:53
NOT Current
Partly cloudy
Partly cloudy
 Wind from calm
Wind: Calm
Temperature: 17°C
Dew Point: 7°C
Humidity: 52%
Barometer: 1016.9 hPa
Clouds: Partly cloudy
Visibility: 16 km
Cloud details: Few Clouds 914 m
Partly cloudy 1463 m
2021/09/21 13:53 KSJC 211353Z 00000KT 10SM FEW030 SCT048 17/07 A3003 RMK AO2 SLP167 FU FEW030 FU SCT048 T01670067
KNUQ - Moffett Nas/Mtn, California, USA
Distance from station: N 14km
Updated: 22/08/2021 13:40
NOT Current
Overcast
Overcast
 Wind from SSE
Wind: SSE 11 km/h
Temperature: 16°C
Dew Point: 12°C
Humidity: 77%
Barometer: 1009.8 hPa
Clouds: Overcast
Visibility: 16 km
Cloud details: Overcast 549 m
2021/08/22 11:40 KNUQ 221140Z AUTO 16006KT 10SM OVC018 16/12 A2982 RMK AO2
 
KPAO - Palo Alto, California, USA
Distance from station: NNW 23km
Updated: 21/09/2021 05:47
NOT Current
Clear
Clear
 Wind from W
Wind: W 9 km/h
Temperature: 21°C
Dew Point: 9°C
Humidity: 46%
Barometer: 1014.2 hPa
Clouds: Clear
Visibility: 16 km
2021/09/21 03:47 KPAO 210347Z 28005KT 10SM SKC 21/09 A2995 RMK LAST
KRHV - San Jose/Reid, California, USA
Distance from station: ENE 19km
Updated: 21/09/2021 15:55
NOT Current
Clear
Clear
 Wind from calm
Wind: Calm
Temperature: 16°C
Dew Point: 7°C
Humidity: 55%
Barometer: 1017.3 hPa
Clouds: Clear
Visibility: 16 km
2021/09/21 13:55 KRHV 211355Z 00000KT 10SM SKC 16/07 A3004
 
KOAK - Oakland, California, USA
Distance from station: NNW 50km
Updated: 21/09/2021 15:53
NOT Current
Clear
Clear
 Wind from calm
Wind: Calm
Temperature: 16°C
Dew Point: 9°C
Humidity: 63%
Barometer: 1016.9 hPa
Clouds: Clear
Visibility: 16 km
2021/09/21 13:53 KOAK 211353Z 00000KT 10SM CLR 16/09 A3003 RMK AO2 SLP169 T01610089
KSQL - San Carlos Airpo, California, USA
Distance from station: NW 34km
Updated: 21/09/2021 15:55
NOT Current
Clear
Clear
 Wind from calm
Wind: Calm
Temperature: 17°C
Dew Point: 8°C
Humidity: 56%
Barometer: 1017.3 hPa
Clouds: Clear
Visibility: 16 km
2021/09/21 13:55 KSQL 211355Z AUTO 00000KT 10SM CLR 17/08 A3004 RMK AO2
 
KSFO - San Francisco, California, USA
Distance from station: NW 49km
Updated: 21/09/2021 15:56
NOT Current
Clear
Clear
 Wind from calm
Wind: Calm
Temperature: 17°C
Dew Point: 11°C
Humidity: 68%
Barometer: 1016.9 hPa
Clouds: Clear
Visibility: 16 km
2021/09/21 13:56 KSFO 211356Z 00000KT 10SM CLR 17/11 A3003 RMK AO2 SLP167 T01670111
KE16 - San Martin, California, USA
Distance from station: ESE 43km
Updated: 21/09/2021 17:55
Clear
Clear
 Wind from calm
Wind: Calm
Temperature: 19°C
Dew Point: 5°C
Humidity: 40%
Barometer: 1019 hPa
Clouds: Clear
Visibility: 16 km
2021/09/21 15:55 KE16 211555Z AUTO 00000KT 10SM CLR 19/05 A3009 RMK AO2 PWINO PNO
 
KWVI - Watsonville, California, USA
Distance from station: SSE 44km
Updated: 21/09/2021 15:53
NOT Current
Clear
Clear
 Wind from W
Wind: W 7 km/h
Temperature: 13°C
Dew Point: 7°C
Humidity: 67%
Barometer: 1016.6 hPa
Clouds: Clear
Visibility: 16 km
2021/09/21 13:53 KWVI 211353Z AUTO 26004KT 10SM CLR 13/07 A3002 RMK AO2 SLP166 T01280072
KHAF - Half Moon Bay, California, USA
Distance from station: WNW 50km
Updated: 21/09/2021 18:15
Haze, Clear
Haze, Clear
 Wind from SSE
Wind: SSE 7 km/h
Temperature: 19°C
Dew Point: 9°C
Humidity: 52%
Barometer: 1017.9 hPa
Summary: Haze
Clouds: Clear
Visibility: 10 km
2021/09/21 16:15 KHAF 211615Z AUTO 15004KT 6SM HZ CLR 19/09 A3006 RMK AO2 PWINO
 
KHWD - Hayward, California, USA
Distance from station: N 44km
Updated: 21/09/2021 15:54
NOT Current
Clear
Clear
 Wind from calm
Wind: Calm
Temperature: 17°C
Dew Point: 6°C
Humidity: 49%
Barometer: 1016.6 hPa
Clouds: Clear
Visibility: 16 km
2021/09/21 13:54 KHWD 211354Z 00000KT 10SM CLR 17/06 A3002 RMK AO2 SLP176 T01670056
KLVK - Livermore, California, USA
Distance from station: NNE 51km
Updated: 21/09/2021 15:53
NOT Current
Clear
Clear
 Wind from calm
Wind: Calm
Temperature: 15°C
Dew Point: 4°C
Humidity: 48%
Barometer: 1017.6 hPa
Clouds: Clear
Visibility: 16 km
2021/09/21 13:53 KLVK 211353Z 00000KT 10SM CLR 15/04 A3005 RMK AO2 SLP170 T01500039